Stolt Surf — ZCSR3 — position and weather

sailwx.info

Track history (hours):
 
Tides and Currents Weather Stations Pressure Air Temp Water Temp Dewpoint Dewpoint Depression Visibility Wind Speed Wind Dir Waves Ship Positions

Stolt Surf

Last reported at 2015-Mar-04 03:33 UTC. Time now 2015-Mar-05 02:37 UTC.
Position N 35°03' E 119°49'.

Length 163 m; draft 7.6 m.

Type: Ship. MMSI: 319545000.

Date/timePositionNaut miles runAvg speedWind from/ knotsBaromVisibWave heightAir tempDewpointWater temp
2015-Mar-04 03:33N 35°03' E 119°49'1312.2
2015-Mar-04 02:31N 35°03' E 119°33'9 9.1
2015-Mar-04 01:32N 35°06' E 119°23'0 0.0
2015-Mar-04 00:29N 35°06' E 119°23'0 0.0
2015-Mar-03 00:33N 35°06' E 119°23'6 5.8
2015-Mar-02 23:33N 35°03' E 119°30'9 8.9
2015-Mar-02 22:32N 35°04' E 119°40'1 0.3
2015-Mar-02 19:30N 35°05' E 119°42'0 0.0
2015-Mar-02 18:30N 35°05' E 119°42'0 0.1
2015-Mar-02 17:30N 35°05' E 119°42'0 0.1
2015-Mar-02 16:24N 35°05' E 119°42'0 0.0
2015-Mar-02 15:18N 35°05' E 119°42'0 0.0
2015-Mar-02 14:24N 35°05' E 119°42'0 0.1
2015-Mar-02 13:24N 35°05' E 119°42'0 0.0
2015-Mar-02 12:30N 35°05' E 119°42'0 0.0
2015-Mar-02 11:18N 35°05' E 119°42'0 0.0
2015-Mar-02 10:24N 35°05' E 119°42'0 0.1
2015-Mar-02 09:30N 35°05' E 119°42'0 0.1
2015-Mar-02 08:24N 35°05' E 119°42'0 0.0
2015-Mar-02 07:24N 35°05' E 119°42'4 5.2
2015-Mar-02 06:33N 35°03' E 119°47'1111.4
2015-Mar-02 05:33N 35°04' E 120°00'  
Track history (hours):
 
Tides and Currents Weather Stations Pressure Air Temp Water Temp Dewpoint Dewpoint Depression Visibility Wind Speed Wind Dir Waves Ship Positions

Stolt Surf

Last reported at 2015-Mar-04 03:33 UTC. Time now 2015-Mar-05 02:37 UTC.
Position N 35°03' E 119°49'.

Length 163 m; draft 7.6 m.

Type: Ship. MMSI: 319545000.

Date/timePositionNaut miles runAvg speedWind from/ knotsBaromVisibWave heightAir tempDewpointWater temp
2015-Mar-04 03:33N 35°03' E 119°49'1312.2
2015-Mar-04 02:31N 35°03' E 119°33'9 9.1
2015-Mar-04 01:32N 35°06' E 119°23'0 0.0
2015-Mar-04 00:29N 35°06' E 119°23'0 0.0
2015-Mar-03 00:33N 35°06' E 119°23'6 5.8
2015-Mar-02 23:33N 35°03' E 119°30'9 8.9
2015-Mar-02 22:32N 35°04' E 119°40'1 0.3
2015-Mar-02 19:30N 35°05' E 119°42'0 0.0
2015-Mar-02 18:30N 35°05' E 119°42'0 0.1
2015-Mar-02 17:30N 35°05' E 119°42'0 0.1
2015-Mar-02 16:24N 35°05' E 119°42'0 0.0
2015-Mar-02 15:18N 35°05' E 119°42'0 0.0
2015-Mar-02 14:24N 35°05' E 119°42'0 0.1
2015-Mar-02 13:24N 35°05' E 119°42'0 0.0
2015-Mar-02 12:30N 35°05' E 119°42'0 0.0
2015-Mar-02 11:18N 35°05' E 119°42'0 0.0
2015-Mar-02 10:24N 35°05' E 119°42'0 0.1
2015-Mar-02 09:30N 35°05' E 119°42'0 0.1
2015-Mar-02 08:24N 35°05' E 119°42'0 0.0
2015-Mar-02 07:24N 35°05' E 119°42'4 5.2
2015-Mar-02 06:33N 35°03' E 119°47'1111.4
2015-Mar-02 05:33N 35°04' E 120°00'  

Dump ship's entire track history